• Join FlightAware (Why Join?)
  • Login
  • US Flag 
05:19PM EDT


 

Airport Tracker/Info


-or-


 

Live Flight TrackerFlight Track Log ✈ MAS2742 ✈ 02-Nov-2013 ✈ WMKK / KUL - WBGB / BTU

Flight Track Log - Related Links

Times and Time Zones

All times are in EDT time to prevent confusion due to time zone crossing. See the MAS2742 flight status page for this flight to view local times or setup timezone preferences in your user account.

Time Position Orientation Groundspeed Altitude Reporting Facility
EDT Latitude Longitude Course Direction KTS MPH feet Rate Location/Type
11:03PM 2.9030 101.7370 66° East 299 344 6,500  Level FlightAware
11:04PM 2.9180 101.7710 66° East 323 372 7,000 2,100 Climbing FlightAware
11:04PM 2.9390 101.8220 68° East 334 384 8,600 2,280 Climbing FlightAware
11:05PM 2.9590 101.8680 66° East 341 392 10,000 2,580 Climbing FlightAware
11:06PM 2.9940 101.9510 67° East 348 400 12,400 2,880 Climbing FlightAware
11:06PM 3.0140 101.9990 67° East 356 410 13,700 2,520 Climbing FlightAware
11:07PM 3.0370 102.0540 67° East 366 421 15,300 2,580 Climbing FlightAware
11:08PM 3.0740 102.1410 67° East 377 434 17,600 2,340 Climbing FlightAware
11:08PM 3.0980 102.1980 67° East 385 443 18,800 1,980 Climbing FlightAware
11:09PM 3.1280 102.2690 67° East 392 451 20,300 1,860 Climbing FlightAware
11:10PM 3.1680 102.3560 65° Northeast 411 473 21,800 1,260 Climbing FlightAware
11:11PM 3.2380 102.4570 55° Northeast 422 486 22,800 600 Climbing FlightAware
11:12PM 3.2610 102.4880 53° Northeast 426 490 23,000 120 Climbing FlightAware
11:12PM 3.2850 102.5210 54° Northeast 426 490 23,000  Level FlightAware
11:13PM 3.3200 102.5700 54° Northeast 426 490 23,000  Level FlightAware
11:13PM 3.3560 102.6190 54° Northeast 426 490 23,000  Level FlightAware
11:14PM 3.3890 102.6650 54° Northeast 426 490 23,000  Level FlightAware
11:15PM 3.4260 102.7150 53° Northeast 426 490 23,000 2,340 Level FlightAware
11:16PM 3.3710 102.9930 101° East 445 512 27,000 2,100 Climbing FlightAware
11:17PM 3.3730 103.0860 89° East 447 514 27,000  Level FlightAware
11:18PM 3.3780 103.2310 88° East 447 514 27,000  Level FlightAware
11:18PM 3.3790 103.2740 89° East 447 514 27,000  Level FlightAware
11:19PM 3.3820 103.3580 88° East 447 514 27,000  Level FlightAware
11:20PM 3.3860 103.4640 88° East 447 514 27,000  Level FlightAware
11:21PM 3.3890 103.5480 88° East 447 514 27,000 480 Level FlightAware
11:23PM 3.2660 103.8450 113° Southeast 461 531 28,400 780 Climbing FlightAware
11:23PM 3.2580 103.8740 105° East 463 533 28,700 180 Climbing FlightAware
11:24PM 3.2280 103.9870 105° East 463 533 28,700 960 Level FlightAware
11:25PM 3.1960 104.1020 106° East 472 543 30,500 1,620 Climbing FlightAware
11:26PM 3.1650 104.2110 106° East 470 541 31,400 960 Climbing FlightAware
11:26PM 3.1380 104.3110 105° East 465 535 32,100 1,320 Climbing FlightAware
11:27PM 3.1030 104.4370 106° East 468 539 33,800 1,500 Climbing FlightAware
11:28PM 3.0840 104.5060 105° East 470 541 34,400 840 Climbing FlightAware
11:29PM 3.0550 104.6120 105° East 472 543 35,000 360 Climbing FlightAware
11:29PM 3.0300 104.7030 105° East 472 543 35,000  Level FlightAware
11:30PM 2.9960 104.8270 105° East 467 537 35,000  Level FlightAware
11:31PM 2.9800 104.8860 105° East 467 537 35,000  Level FlightAware
11:32PM 2.9510 104.9930 105° East 467 537 35,000  Level FlightAware
11:32PM 2.9400 105.0350 105° East 467 537 35,000  Level FlightAware
11:33PM 2.8970 105.1820 106° East 464 534 35,000  Level FlightAware
11:34PM 2.8790 105.2470 105° East 464 534 35,000 480 Level FlightAware
11:35PM 2.8420 105.3850 105° East 462 532 35,800 900 Climbing FlightAware
11:36PM 2.8200 105.4630 106° East 458 527 36,600 720 Climbing FlightAware
11:37PM 2.7850 105.5920 105° East 460 529 37,000 180 Climbing FlightAware
11:37PM 2.7600 105.6830 105° East 460 529 37,000  Level FlightAware
11:38PM 2.7280 105.7990 105° East 460 529 37,000  Level FlightAware
11:39PM 2.7000 105.8990 106° East 460 529 37,000  Level FlightAware
11:40PM 2.6720 106.0020 105° East 459 528 37,000  Level FlightAware
11:41PM 2.6520 106.0710 106° East 459 528 37,000  Level FlightAware
11:41PM 2.6350 106.1340 105° East 459 528 37,000  Level FlightAware
11:42PM 2.6030 106.2490 106° East 459 528 37,000  Level FlightAware
11:42PM 2.5930 106.2880 104° East 460 529 37,000  Level FlightAware
11:43PM 2.5560 106.4200 106° East 459 528 37,000  Level FlightAware
11:44PM 2.5330 106.5070 105° East 459 528 37,000  Level FlightAware
11:45PM 2.5160 106.5700 105° East 459 528 37,000  Level FlightAware
11:46PM 2.4880 106.6740 105° East 459 528 37,000  Level FlightAware
11:47PM 2.4660 106.7580 105° East 459 528 37,000  Level FlightAware
11:47PM 2.4430 106.8420 105° East 459 528 37,000  Level FlightAware
11:48PM 2.4210 106.9260 105° East 459 528 37,000  Level FlightAware
11:49PM 2.4040 106.9890 105° East 459 528 37,000  Level FlightAware
11:49PM 2.3930 107.0310 105° East 459 528 37,000  Level FlightAware
11:50PM 2.3700 107.1140 105° East 459 528 37,000  Level FlightAware
11:51PM 2.3420 107.2190 105° East 459 528 37,000  Level FlightAware
11:52PM 2.3250 107.2820 105° East 459 528 37,000  Level FlightAware
11:52PM 2.3030 107.3660 105° East 459 528 37,000  Level FlightAware
11:53PM 2.2810 107.4480 105° East 459 528 37,000  Level FlightAware
11:56PM 2.3153 107.6714 81° East  Level Estimated
11:57PM 2.3300 107.7678 81° East  Level Estimated
11:58PM 2.3448 107.8642 81° East  Level Estimated
11:58PM 2.2780 108.1480 81° East 452 520 37,000  Level FlightAware
11:58PM 2.3170 108.2490 69° East 455 524 37,000  Level FlightAware
11:59PM 2.3630 108.3680 69° East 455 524 37,000  Level FlightAware
12:00AM 2.4050 108.4770 69° East 455 524 37,000  Level FlightAware
12:01AM 2.4410 108.5720 69° East 456 525 37,000  Level FlightAware
12:02AM 2.4810 108.6750 69° East 456 525 37,000  Level FlightAware
12:03AM 2.5180 108.7670 68° East 456 525 37,000  Level FlightAware
12:04AM 2.5610 108.8780 69° East 456 525 37,000  Level FlightAware
12:04AM 2.5950 108.9630 68° East 452 520 37,000  Level FlightAware
12:05AM 2.6320 109.0740 72° East 450 518 37,000  Level FlightAware
12:06AM 2.6590 109.1710 74° East 449 517 37,000  Level FlightAware
12:07AM 2.6750 109.2300 75° East 449 517 37,000  Level FlightAware
12:08AM 2.6950 109.3460 80° East 449 517 37,000  Level FlightAware
12:08AM 2.6990 109.3770 83° East 450 518 37,000  Level FlightAware
12:09AM 2.7130 109.5010 84° East 450 518 37,000  Level FlightAware
12:10AM 2.7240 109.5880 83° East 450 518 37,000  Level FlightAware
12:10AM 2.7350 109.6820 83° East 450 518 37,000  Level FlightAware
12:11AM 2.7460 109.7720 83° East 450 518 37,000  Level FlightAware
12:12AM 2.7540 109.8350 83° East 451 519 37,000  Level FlightAware
12:12AM 2.7630 109.9060 83° East 452 520 37,000  Level FlightAware
12:13AM 2.7770 110.0170 83° East 453 521 37,000  Level FlightAware
12:13AM 2.7800 110.0420 83° East 453 521 37,000  Level FlightAware
12:14AM 2.7950 110.1620 83° East 445 512 37,000  Level FlightAware
12:15AM 2.8000 110.1990 82° East 444 511 37,000  Level FlightAware
12:15AM 2.8100 110.2790 83° East 443 510 37,000  Level FlightAware
12:16AM 2.8250 110.4070 83° East 440 506 37,000  Level FlightAware
12:17AM 2.8450 110.5190 80° East 442 509 37,000  Level FlightAware
12:18AM 2.8670 110.6220 78° East 445 512 37,000  Level FlightAware
12:19AM 2.8900 110.7280 78° East 440 506 37,000 -360 Level FlightAware
12:20AM 2.9130 110.8320 78° East 436 502 36,400 -840 Descending FlightAware
12:21AM 2.9340 110.9300 78° East 443 510 35,600 -1,020 Descending FlightAware
12:21AM 2.9460 110.9850 78° East 445 512 35,100 -1,020 Descending FlightAware
12:22AM 2.9700 111.0930 77° East 449 517 34,300 -1,080 Descending FlightAware
12:23AM 2.9960 111.2130 78° East 447 514 33,100 -720 Descending FlightAware
12:24AM 3.0110 111.2770 77° East 447 514 33,100  Level FlightAware
12:25AM 3.0340 111.3790 77° East 447 514 33,100  Level FlightAware
12:25AM 3.0540 111.4640 77° East 447 514 33,100  Level FlightAware
12:26AM 3.0730 111.5460 77° East 447 514 33,100  Level FlightAware
12:27AM 3.0960 111.6490 77° East 447 514 33,100  Level FlightAware
12:28AM 3.1150 111.7310 77° East 447 514 33,100  Level FlightAware
12:29AM 3.1340 111.8130 77° East 447 514 33,100  Level FlightAware
12:29AM 3.1490 111.8770 77° East 447 514 33,100  Level FlightAware
12:30AM 3.1680 111.9590 77° East 447 514 33,100  Level FlightAware
12:31AM 3.1870 112.0420 77° East 447 514 33,100  Level FlightAware
12:32AM 3.2100 112.1410 77° East 447 514 33,100  Level FlightAware
12:32AM 3.2190 112.1820 78° East 447 514 33,100  Level FlightAware
12:36AM 3.1855 112.4778 96° East  Level Estimated
12:37AM 3.1745 112.5748 96° East  Level Estimated
12:38AM 3.1635 112.6718 96° East  Level Estimated
12:39AM 3.1525 112.7688 96° East  Level Estimated
12:40AM 3.1414 112.8658 96° East  Level Estimated
12:41AM 3.1304 112.9628 96° East  Level Estimated
12:42AM 3.1239 113.0205 97° East  Level Estimated
12:43AM 3.1239 113.0205 90° East  Level Estimated
12:44AM 3.1239 113.0205 90° East  Level Estimated
12:45AM 3.1239 113.0205 90° East  Level Estimated
12:46AM 3.1239 113.0205 90° East  Level Estimated
12:47AM 3.1239 113.0205 90° East  Level Estimated
12:48AM 3.1239 113.0205 90° East  Level Estimated
12:49AM 3.1239 113.0205 90° East  Level Estimated
12:50AM 3.1239 113.0205 90° East  Level Estimated
12:51AM 3.1239 113.0205 90° East  Level Estimated
12:52AM 3.1239 113.0205 90° East  Level Estimated
12:53AM 3.1239 113.0205 90° East  Level Estimated
12:54AM 3.1239 113.0205 90° East  Level Estimated